sensor_id;sensor_type;location;lat;lon;timestamp;P1;durP1;ratioP1;P2;durP2;ratioP2
67997;SDS011;54773;53.388;-1.504;2024-02-23T00:00:02;4.07;;;1.52;;
67997;SDS011;54773;53.388;-1.504;2024-02-23T00:02:49;7.88;;;1.38;;
67997;SDS011;54773;53.388;-1.504;2024-02-23T00:05:33;8.13;;;1.50;;
67997;SDS011;54773;53.388;-1.504;2024-02-23T00:08:16;6.63;;;1.70;;
67997;SDS011;54773;53.388;-1.504;2024-02-23T00:11:03;5.28;;;1.10;;
67997;SDS011;54773;53.388;-1.504;2024-02-23T00:13:47;4.53;;;1.50;;
67997;SDS011;54773;53.388;-1.504;2024-02-23T00:16:31;3.83;;;1.30;;
67997;SDS011;54773;53.388;-1.504;2024-02-23T00:19:15;3.63;;;1.10;;
67997;SDS011;54773;53.388;-1.504;2024-02-23T00:22:01;7.28;;;1.33;;
67997;SDS011;54773;53.388;-1.504;2024-02-23T00:24:45;6.05;;;1.17;;
67997;SDS011;54773;53.388;-1.504;2024-02-23T00:27:29;4.35;;;1.30;;
67997;SDS011;54773;53.388;-1.504;2024-02-23T00:30:13;4.88;;;1.40;;
67997;SDS011;54773;53.388;-1.504;2024-02-23T00:32:57;3.95;;;1.02;;
67997;SDS011;54773;53.388;-1.504;2024-02-23T00:35:41;4.85;;;1.20;;
67997;SDS011;54773;53.388;-1.504;2024-02-23T00:38:25;7.40;;;1.20;;
67997;SDS011;54773;53.388;-1.504;2024-02-23T00:41:09;4.32;;;1.25;;
67997;SDS011;54773;53.388;-1.504;2024-02-23T00:43:53;6.10;;;1.25;;
67997;SDS011;54773;53.388;-1.504;2024-02-23T00:46:37;4.45;;;1.35;;
67997;SDS011;54773;53.388;-1.504;2024-02-23T00:49:22;7.60;;;1.77;;
67997;SDS011;54773;53.388;-1.504;2024-02-23T00:52:05;5.97;;;1.50;;
67997;SDS011;54773;53.388;-1.504;2024-02-23T00:54:49;7.00;;;1.35;;
67997;SDS011;54773;53.388;-1.504;2024-02-23T00:57:34;4.82;;;1.13;;
67997;SDS011;54773;53.388;-1.504;2024-02-23T01:00:19;7.45;;;1.42;;
67997;SDS011;54773;53.388;-1.504;2024-02-23T01:03:03;4.40;;;1.10;;
67997;SDS011;54773;53.388;-1.504;2024-02-23T01:05:47;3.92;;;1.40;;
67997;SDS011;54773;53.388;-1.504;2024-02-23T01:08:31;4.78;;;1.10;;
67997;SDS011;54773;53.388;-1.504;2024-02-23T01:11:15;6.82;;;1.33;;
67997;SDS011;54773;53.388;-1.504;2024-02-23T01:13:59;2.67;;;1.13;;
67997;SDS011;54773;53.388;-1.504;2024-02-23T01:16:43;7.60;;;1.75;;
67997;SDS011;54773;53.388;-1.504;2024-02-23T01:19:27;5.50;;;1.48;;
67997;SDS011;54773;53.388;-1.504;2024-02-23T01:22:11;5.20;;;1.05;;
67997;SDS011;54773;53.388;-1.504;2024-02-23T01:24:55;7.43;;;1.33;;
67997;SDS011;54773;53.388;-1.504;2024-02-23T01:27:39;6.50;;;1.60;;
67997;SDS011;54773;53.388;-1.504;2024-02-23T01:30:23;7.07;;;1.67;;
67997;SDS011;54773;53.388;-1.504;2024-02-23T01:33:07;5.32;;;1.38;;
67997;SDS011;54773;53.388;-1.504;2024-02-23T01:35:51;8.13;;;1.40;;
67997;SDS011;54773;53.388;-1.504;2024-02-23T01:38:35;5.00;;;1.60;;
67997;SDS011;54773;53.388;-1.504;2024-02-23T01:41:19;10.32;;;1.63;;
67997;SDS011;54773;53.388;-1.504;2024-02-23T01:44:03;7.35;;;1.75;;
67997;SDS011;54773;53.388;-1.504;2024-02-23T01:46:47;5.65;;;1.30;;
67997;SDS011;54773;53.388;-1.504;2024-02-23T01:49:32;3.88;;;1.10;;
67997;SDS011;54773;53.388;-1.504;2024-02-23T01:52:17;9.38;;;1.63;;
67997;SDS011;54773;53.388;-1.504;2024-02-23T01:55:02;5.03;;;1.27;;
67997;SDS011;54773;53.388;-1.504;2024-02-23T01:57:46;4.47;;;1.30;;
67997;SDS011;54773;53.388;-1.504;2024-02-23T02:00:31;5.88;;;1.58;;
67997;SDS011;54773;53.388;-1.504;2024-02-23T02:03:15;6.35;;;1.10;;
67997;SDS011;54773;53.388;-1.504;2024-02-23T02:05:59;5.75;;;1.42;;
67997;SDS011;54773;53.388;-1.504;2024-02-23T02:08:44;9.20;;;1.40;;
67997;SDS011;54773;53.388;-1.504;2024-02-23T02:11:29;6.57;;;1.40;;
67997;SDS011;54773;53.388;-1.504;2024-02-23T02:14:13;6.78;;;1.80;;
67997;SDS011;54773;53.388;-1.504;2024-02-23T02:16:57;6.22;;;1.48;;
67997;SDS011;54773;53.388;-1.504;2024-02-23T02:19:45;4.30;;;1.40;;
67997;SDS011;54773;53.388;-1.504;2024-02-23T02:22:31;5.38;;;1.13;;
67997;SDS011;54773;53.388;-1.504;2024-02-23T02:25:17;5.47;;;1.52;;
67997;SDS011;54773;53.388;-1.504;2024-02-23T02:28:01;5.97;;;1.20;;
67997;SDS011;54773;53.388;-1.504;2024-02-23T02:30:50;8.75;;;1.38;;
67997;SDS011;54773;53.388;-1.504;2024-02-23T02:33:34;7.40;;;1.60;;
67997;SDS011;54773;53.388;-1.504;2024-02-23T02:36:18;4.82;;;1.20;;
67997;SDS011;54773;53.388;-1.504;2024-02-23T02:39:02;8.40;;;1.80;;
67997;SDS011;54773;53.388;-1.504;2024-02-23T02:41:47;6.85;;;1.90;;
67997;SDS011;54773;53.388;-1.504;2024-02-23T02:44:32;5.20;;;1.38;;
67997;SDS011;54773;53.388;-1.504;2024-02-23T02:47:16;6.65;;;1.40;;
67997;SDS011;54773;53.388;-1.504;2024-02-23T02:50:00;4.70;;;1.40;;
67997;SDS011;54773;53.388;-1.504;2024-02-23T02:52:44;4.07;;;1.40;;
67997;SDS011;54773;53.388;-1.504;2024-02-23T02:55:28;4.85;;;1.20;;
67997;SDS011;54773;53.388;-1.504;2024-02-23T03:00:56;7.30;;;1.55;;
67997;SDS011;54773;53.388;-1.504;2024-02-23T03:03:40;7.22;;;1.58;;
67997;SDS011;54773;53.388;-1.504;2024-02-23T03:06:24;3.03;;;1.25;;
67997;SDS011;54773;53.388;-1.504;2024-02-23T03:09:08;4.65;;;1.40;;
67997;SDS011;54773;53.388;-1.504;2024-02-23T03:11:52;6.25;;;1.38;;
67997;SDS011;54773;53.388;-1.504;2024-02-23T03:14:36;4.93;;;1.50;;
67997;SDS011;54773;53.388;-1.504;2024-02-23T03:17:24;4.35;;;1.50;;
67997;SDS011;54773;53.388;-1.504;2024-02-23T03:20:08;3.60;;;1.40;;
67997;SDS011;54773;53.388;-1.504;2024-02-23T03:22:52;4.07;;;1.27;;
67997;SDS011;54773;53.388;-1.504;2024-02-23T03:25:36;5.03;;;1.50;;
67997;SDS011;54773;53.388;-1.504;2024-02-23T03:28:20;3.88;;;1.55;;
67997;SDS011;54773;53.388;-1.504;2024-02-23T03:31:04;6.82;;;1.55;;
67997;SDS011;54773;53.388;-1.504;2024-02-23T03:33:48;9.60;;;1.87;;
67997;SDS011;54773;53.388;-1.504;2024-02-23T03:36:32;3.70;;;1.40;;
67997;SDS011;54773;53.388;-1.504;2024-02-23T03:39:16;5.20;;;1.17;;
67997;SDS011;54773;53.388;-1.504;2024-02-23T03:42:00;5.20;;;1.20;;
67997;SDS011;54773;53.388;-1.504;2024-02-23T03:44:44;4.78;;;1.30;;
67997;SDS011;54773;53.388;-1.504;2024-02-23T03:47:28;6.23;;;1.90;;
67997;SDS011;54773;53.388;-1.504;2024-02-23T03:50:12;4.78;;;1.48;;
67997;SDS011;54773;53.388;-1.504;2024-02-23T03:52:56;9.20;;;1.37;;
67997;SDS011;54773;53.388;-1.504;2024-02-23T03:55:40;4.43;;;1.48;;
67997;SDS011;54773;53.388;-1.504;2024-02-23T03:58:24;3.40;;;1.30;;
67997;SDS011;54773;53.388;-1.504;2024-02-23T04:01:08;4.28;;;1.20;;
67997;SDS011;54773;53.388;-1.504;2024-02-23T04:03:52;9.77;;;1.73;;
67997;SDS011;54773;53.388;-1.504;2024-02-23T04:06:36;3.72;;;1.20;;
67997;SDS011;54773;53.388;-1.504;2024-02-23T04:09:19;5.43;;;1.30;;
67997;SDS011;54773;53.388;-1.504;2024-02-23T04:12:04;6.53;;;1.63;;
67997;SDS011;54773;53.388;-1.504;2024-02-23T04:14:50;5.95;;;1.42;;
67997;SDS011;54773;53.388;-1.504;2024-02-23T04:17:34;5.93;;;1.60;;
67997;SDS011;54773;53.388;-1.504;2024-02-23T04:20:18;5.70;;;1.65;;
67997;SDS011;54773;53.388;-1.504;2024-02-23T04:23:02;4.88;;;1.70;;
67997;SDS011;54773;53.388;-1.504;2024-02-23T04:25:46;3.00;;;1.40;;
67997;SDS011;54773;53.388;-1.504;2024-02-23T04:28:30;3.25;;;1.30;;
67997;SDS011;54773;53.388;-1.504;2024-02-23T04:31:15;2.72;;;1.55;;
67997;SDS011;54773;53.388;-1.504;2024-02-23T04:33:59;5.85;;;2.00;;
67997;SDS011;54773;53.388;-1.504;2024-02-23T04:36:43;6.70;;;1.77;;
67997;SDS011;54773;53.388;-1.504;2024-02-23T04:39:27;10.30;;;1.90;;
67997;SDS011;54773;53.388;-1.504;2024-02-23T04:42:11;3.63;;;1.55;;
67997;SDS011;54773;53.388;-1.504;2024-02-23T04:44:55;7.07;;;1.80;;
67997;SDS011;54773;53.388;-1.504;2024-02-23T04:47:39;4.13;;;1.75;;
67997;SDS011;54773;53.388;-1.504;2024-02-23T04:50:24;3.67;;;1.63;;
67997;SDS011;54773;53.388;-1.504;2024-02-23T04:53:08;4.00;;;1.88;;
67997;SDS011;54773;53.388;-1.504;2024-02-23T04:55:52;5.32;;;2.25;;
67997;SDS011;54773;53.388;-1.504;2024-02-23T04:58:36;6.00;;;2.23;;
67997;SDS011;54773;53.388;-1.504;2024-02-23T05:01:21;4.50;;;2.22;;
67997;SDS011;54773;53.388;-1.504;2024-02-23T05:04:05;6.60;;;2.13;;
67997;SDS011;54773;53.388;-1.504;2024-02-23T05:06:50;4.30;;;2.08;;
67997;SDS011;54773;53.388;-1.504;2024-02-23T05:09:33;5.45;;;2.00;;
67997;SDS011;54773;53.388;-1.504;2024-02-23T05:12:18;6.50;;;2.80;;
67997;SDS011;54773;53.388;-1.504;2024-02-23T05:15:02;4.40;;;2.00;;
67997;SDS011;54773;53.388;-1.504;2024-02-23T05:17:46;7.82;;;2.60;;
67997;SDS011;54773;53.388;-1.504;2024-02-23T05:20:30;6.10;;;2.58;;
67997;SDS011;54773;53.388;-1.504;2024-02-23T05:23:14;6.45;;;2.33;;
67997;SDS011;54773;53.388;-1.504;2024-02-23T05:26:01;5.75;;;2.17;;
67997;SDS011;54773;53.388;-1.504;2024-02-23T05:28:45;5.53;;;2.05;;
67997;SDS011;54773;53.388;-1.504;2024-02-23T05:31:48;6.55;;;2.33;;
67997;SDS011;54773;53.388;-1.504;2024-02-23T05:34:33;5.63;;;2.40;;
67997;SDS011;54773;53.388;-1.504;2024-02-23T05:37:19;4.45;;;2.08;;
67997;SDS011;54773;53.388;-1.504;2024-02-23T05:40:03;5.65;;;2.10;;
67997;SDS011;54773;53.388;-1.504;2024-02-23T05:42:54;3.50;;;1.73;;
67997;SDS011;54773;53.388;-1.504;2024-02-23T05:45:38;5.70;;;2.30;;
67997;SDS011;54773;53.388;-1.504;2024-02-23T05:48:22;4.43;;;2.35;;
67997;SDS011;54773;53.388;-1.504;2024-02-23T05:51:06;5.50;;;2.13;;
67997;SDS011;54773;53.388;-1.504;2024-02-23T05:53:50;5.97;;;1.90;;
67997;SDS011;54773;53.388;-1.504;2024-02-23T05:56:34;7.00;;;3.03;;
67997;SDS011;54773;53.388;-1.504;2024-02-23T05:59:18;4.80;;;2.10;;
67997;SDS011;54773;53.388;-1.504;2024-02-23T06:02:02;6.27;;;2.30;;
67997;SDS011;54773;53.388;-1.504;2024-02-23T06:04:46;6.78;;;2.00;;
67997;SDS011;54773;53.388;-1.504;2024-02-23T06:07:30;4.45;;;1.83;;
67997;SDS011;54773;53.388;-1.504;2024-02-23T06:10:14;5.28;;;1.80;;
67997;SDS011;54773;53.388;-1.504;2024-02-23T06:12:58;3.38;;;1.77;;
67997;SDS011;54773;53.388;-1.504;2024-02-23T06:15:42;3.72;;;1.60;;
67997;SDS011;54773;53.388;-1.504;2024-02-23T06:18:27;3.72;;;1.73;;
67997;SDS011;54773;53.388;-1.504;2024-02-23T06:21:17;2.50;;;1.30;;
67997;SDS011;54773;53.388;-1.504;2024-02-23T06:24:01;4.07;;;1.38;;
67997;SDS011;54773;53.388;-1.504;2024-02-23T06:26:46;5.15;;;1.50;;
67997;SDS011;54773;53.388;-1.504;2024-02-23T06:29:32;2.78;;;1.40;;
67997;SDS011;54773;53.388;-1.504;2024-02-23T06:32:16;3.72;;;1.58;;
67997;SDS011;54773;53.388;-1.504;2024-02-23T06:35:00;4.15;;;1.50;;
67997;SDS011;54773;53.388;-1.504;2024-02-23T06:37:44;5.27;;;1.83;;
67997;SDS011;54773;53.388;-1.504;2024-02-23T06:40:28;9.93;;;2.60;;
67997;SDS011;54773;53.388;-1.504;2024-02-23T06:43:11;4.93;;;2.10;;
67997;SDS011;54773;53.388;-1.504;2024-02-23T06:45:56;4.25;;;1.70;;
67997;SDS011;54773;53.388;-1.504;2024-02-23T06:48:39;5.55;;;2.45;;
67997;SDS011;54773;53.388;-1.504;2024-02-23T06:51:24;5.97;;;2.20;;
67997;SDS011;54773;53.388;-1.504;2024-02-23T06:54:07;5.22;;;2.22;;
67997;SDS011;54773;53.388;-1.504;2024-02-23T06:56:51;4.53;;;2.25;;
67997;SDS011;54773;53.388;-1.504;2024-02-23T06:59:35;3.95;;;1.88;;
67997;SDS011;54773;53.388;-1.504;2024-02-23T07:02:19;6.90;;;1.77;;
67997;SDS011;54773;53.388;-1.504;2024-02-23T07:05:03;4.33;;;1.97;;
67997;SDS011;54773;53.388;-1.504;2024-02-23T07:07:50;4.95;;;2.50;;
67997;SDS011;54773;53.388;-1.504;2024-02-23T07:10:34;5.35;;;2.40;;
67997;SDS011;54773;53.388;-1.504;2024-02-23T07:13:18;5.07;;;2.80;;
67997;SDS011;54773;53.388;-1.504;2024-02-23T07:16:03;6.35;;;2.63;;
67997;SDS011;54773;53.388;-1.504;2024-02-23T07:18:48;5.30;;;2.80;;
67997;SDS011;54773;53.388;-1.504;2024-02-23T07:21:32;8.30;;;2.83;;
67997;SDS011;54773;53.388;-1.504;2024-02-23T07:24:15;6.93;;;3.63;;
67997;SDS011;54773;53.388;-1.504;2024-02-23T07:27:00;5.03;;;3.10;;
67997;SDS011;54773;53.388;-1.504;2024-02-23T07:29:44;6.43;;;3.30;;
67997;SDS011;54773;53.388;-1.504;2024-02-23T07:32:29;5.72;;;3.05;;
67997;SDS011;54773;53.388;-1.504;2024-02-23T07:35:13;9.07;;;4.00;;
67997;SDS011;54773;53.388;-1.504;2024-02-23T07:37:57;6.93;;;3.58;;
67997;SDS011;54773;53.388;-1.504;2024-02-23T07:40:41;6.33;;;3.67;;
67997;SDS011;54773;53.388;-1.504;2024-02-23T07:43:25;6.30;;;3.38;;
67997;SDS011;54773;53.388;-1.504;2024-02-23T07:46:12;7.07;;;3.70;;
67997;SDS011;54773;53.388;-1.504;2024-02-23T07:48:56;7.15;;;3.67;;
67997;SDS011;54773;53.388;-1.504;2024-02-23T07:51:40;5.75;;;3.63;;
67997;SDS011;54773;53.388;-1.504;2024-02-23T07:54:24;5.85;;;3.30;;
67997;SDS011;54773;53.388;-1.504;2024-02-23T07:57:08;8.50;;;3.83;;
67997;SDS011;54773;53.388;-1.504;2024-02-23T07:59:52;6.75;;;3.38;;
67997;SDS011;54773;53.388;-1.504;2024-02-23T08:02:36;6.32;;;3.90;;
67997;SDS011;54773;53.388;-1.504;2024-02-23T08:05:20;5.90;;;3.13;;
67997;SDS011;54773;53.388;-1.504;2024-02-23T08:08:04;8.43;;;3.30;;
67997;SDS011;54773;53.388;-1.504;2024-02-23T08:10:50;7.05;;;3.42;;
67997;SDS011;54773;53.388;-1.504;2024-02-23T08:13:34;8.05;;;3.70;;
67997;SDS011;54773;53.388;-1.504;2024-02-23T08:16:18;10.15;;;3.67;;
67997;SDS011;54773;53.388;-1.504;2024-02-23T08:19:02;6.80;;;3.73;;
67997;SDS011;54773;53.388;-1.504;2024-02-23T08:21:46;7.00;;;3.20;;
67997;SDS011;54773;53.388;-1.504;2024-02-23T08:24:30;6.10;;;3.40;;
67997;SDS011;54773;53.388;-1.504;2024-02-23T08:27:15;7.25;;;2.75;;
67997;SDS011;54773;53.388;-1.504;2024-02-23T08:29:59;7.30;;;2.75;;
67997;SDS011;54773;53.388;-1.504;2024-02-23T08:32:43;5.53;;;3.20;;
67997;SDS011;54773;53.388;-1.504;2024-02-23T08:35:27;7.93;;;3.28;;
67997;SDS011;54773;53.388;-1.504;2024-02-23T08:38:11;6.57;;;2.75;;
67997;SDS011;54773;53.388;-1.504;2024-02-23T08:40:55;4.97;;;2.47;;
67997;SDS011;54773;53.388;-1.504;2024-02-23T08:43:39;11.27;;;3.65;;
67997;SDS011;54773;53.388;-1.504;2024-02-23T08:46:23;8.23;;;3.08;;
67997;SDS011;54773;53.388;-1.504;2024-02-23T08:49:06;10.57;;;2.50;;
67997;SDS011;54773;53.388;-1.504;2024-02-23T08:51:50;5.97;;;2.43;;
67997;SDS011;54773;53.388;-1.504;2024-02-23T08:54:34;5.68;;;2.10;;
67997;SDS011;54773;53.388;-1.504;2024-02-23T08:57:18;6.88;;;2.47;;
67997;SDS011;54773;53.388;-1.504;2024-02-23T09:00:04;5.85;;;2.70;;
67997;SDS011;54773;53.388;-1.504;2024-02-23T09:02:49;6.32;;;2.65;;
67997;SDS011;54773;53.388;-1.504;2024-02-23T09:05:34;3.90;;;2.00;;
67997;SDS011;54773;53.388;-1.504;2024-02-23T09:08:17;4.93;;;2.37;;
67997;SDS011;54773;53.388;-1.504;2024-02-23T09:11:01;6.55;;;2.58;;
67997;SDS011;54773;53.388;-1.504;2024-02-23T09:13:45;6.65;;;3.58;;
67997;SDS011;54773;53.388;-1.504;2024-02-23T09:16:29;7.00;;;3.30;;
67997;SDS011;54773;53.388;-1.504;2024-02-23T09:19:13;7.83;;;3.07;;
67997;SDS011;54773;53.388;-1.504;2024-02-23T09:21:57;9.95;;;2.75;;
67997;SDS011;54773;53.388;-1.504;2024-02-23T09:24:43;7.20;;;2.60;;
67997;SDS011;54773;53.388;-1.504;2024-02-23T09:27:27;5.57;;;2.13;;
67997;SDS011;54773;53.388;-1.504;2024-02-23T09:30:14;6.55;;;2.40;;
67997;SDS011;54773;53.388;-1.504;2024-02-23T09:32:58;4.78;;;1.40;;
67997;SDS011;54773;53.388;-1.504;2024-02-23T09:35:42;7.25;;;1.50;;
67997;SDS011;54773;53.388;-1.504;2024-02-23T09:38:26;4.27;;;1.20;;
67997;SDS011;54773;53.388;-1.504;2024-02-23T09:41:11;5.53;;;1.42;;
67997;SDS011;54773;53.388;-1.504;2024-02-23T09:44:07;4.35;;;1.70;;
67997;SDS011;54773;53.388;-1.504;2024-02-23T09:46:53;6.85;;;1.98;;
67997;SDS011;54773;53.388;-1.504;2024-02-23T09:49:40;7.43;;;2.55;;
67997;SDS011;54773;53.388;-1.504;2024-02-23T09:52:24;5.40;;;2.50;;
67997;SDS011;54773;53.388;-1.504;2024-02-23T09:55:12;4.38;;;2.00;;
67997;SDS011;54773;53.388;-1.504;2024-02-23T09:57:57;8.63;;;2.50;;
67997;SDS011;54773;53.388;-1.504;2024-02-23T10:00:42;8.82;;;2.75;;
67997;SDS011;54773;53.388;-1.504;2024-02-23T10:03:27;6.97;;;2.72;;
67997;SDS011;54773;53.388;-1.504;2024-02-23T10:06:14;3.88;;;2.10;;
67997;SDS011;54773;53.388;-1.504;2024-02-23T10:08:58;8.88;;;2.60;;
67997;SDS011;54773;53.388;-1.504;2024-02-23T10:11:42;4.20;;;2.13;;
67997;SDS011;54773;53.388;-1.504;2024-02-23T10:14:25;7.28;;;2.67;;
67997;SDS011;54773;53.388;-1.504;2024-02-23T10:17:09;4.80;;;2.75;;
67997;SDS011;54773;53.388;-1.504;2024-02-23T10:19:53;6.13;;;2.27;;
67997;SDS011;54773;53.388;-1.504;2024-02-23T10:22:37;6.45;;;2.38;;
67997;SDS011;54773;53.388;-1.504;2024-02-23T10:25:21;5.40;;;2.03;;
67997;SDS011;54773;53.388;-1.504;2024-02-23T10:28:05;3.50;;;1.73;;
67997;SDS011;54773;53.388;-1.504;2024-02-23T10:33:34;7.30;;;1.83;;
67997;SDS011;54773;53.388;-1.504;2024-02-23T10:36:19;5.05;;;1.40;;
67997;SDS011;54773;53.388;-1.504;2024-02-23T10:39:06;10.70;;;1.73;;
67997;SDS011;54773;53.388;-1.504;2024-02-23T10:41:56;7.78;;;1.90;;
67997;SDS011;54773;53.388;-1.504;2024-02-23T10:44:44;4.13;;;1.85;;
67997;SDS011;54773;53.388;-1.504;2024-02-23T10:47:28;6.35;;;1.23;;
67997;SDS011;54773;53.388;-1.504;2024-02-23T10:50:14;4.40;;;1.20;;
67997;SDS011;54773;53.388;-1.504;2024-02-23T10:52:59;3.55;;;1.27;;
67997;SDS011;54773;53.388;-1.504;2024-02-23T10:55:44;8.32;;;1.65;;
67997;SDS011;54773;53.388;-1.504;2024-02-23T10:58:29;6.18;;;1.48;;
67997;SDS011;54773;53.388;-1.504;2024-02-23T11:01:12;7.22;;;1.70;;
67997;SDS011;54773;53.388;-1.504;2024-02-23T11:03:57;7.00;;;1.92;;
67997;SDS011;54773;53.388;-1.504;2024-02-23T11:06:41;10.73;;;1.37;;
67997;SDS011;54773;53.388;-1.504;2024-02-23T11:09:25;6.67;;;2.07;;
67997;SDS011;54773;53.388;-1.504;2024-02-23T11:12:10;8.05;;;2.20;;
67997;SDS011;54773;53.388;-1.504;2024-02-23T11:14:57;5.03;;;1.50;;
67997;SDS011;54773;53.388;-1.504;2024-02-23T11:17:49;3.90;;;1.10;;
67997;SDS011;54773;53.388;-1.504;2024-02-23T11:20:34;3.58;;;1.23;;
67997;SDS011;54773;53.388;-1.504;2024-02-23T11:23:18;4.15;;;1.63;;
67997;SDS011;54773;53.388;-1.504;2024-02-23T11:28:50;5.32;;;1.80;;
67997;SDS011;54773;53.388;-1.504;2024-02-23T11:31:37;4.45;;;1.90;;
67997;SDS011;54773;53.388;-1.504;2024-02-23T11:34:28;10.45;;;3.67;;
67997;SDS011;54773;53.388;-1.504;2024-02-23T11:37:12;10.20;;;5.00;;
67997;SDS011;54773;53.388;-1.504;2024-02-23T11:39:56;15.80;;;8.32;;
67997;SDS011;54773;53.388;-1.504;2024-02-23T11:42:43;18.25;;;9.20;;
67997;SDS011;54773;53.388;-1.504;2024-02-23T11:45:28;11.25;;;7.22;;
67997;SDS011;54773;53.388;-1.504;2024-02-23T11:48:12;11.80;;;6.63;;
67997;SDS011;54773;53.388;-1.504;2024-02-23T11:50:56;6.10;;;2.22;;
67997;SDS011;54773;53.388;-1.504;2024-02-23T11:53:40;4.30;;;1.08;;
67997;SDS011;54773;53.388;-1.504;2024-02-23T11:56:24;2.15;;;0.90;;
67997;SDS011;54773;53.388;-1.504;2024-02-23T11:59:08;6.30;;;1.63;;
67997;SDS011;54773;53.388;-1.504;2024-02-23T12:01:52;2.88;;;1.08;;
67997;SDS011;54773;53.388;-1.504;2024-02-23T12:04:37;3.97;;;1.40;;
67997;SDS011;54773;53.388;-1.504;2024-02-23T12:07:21;6.60;;;2.63;;
67997;SDS011;54773;53.388;-1.504;2024-02-23T12:10:06;10.68;;;5.40;;
67997;SDS011;54773;53.388;-1.504;2024-02-23T12:12:50;9.00;;;5.40;;
67997;SDS011;54773;53.388;-1.504;2024-02-23T12:15:34;10.27;;;4.65;;
67997;SDS011;54773;53.388;-1.504;2024-02-23T12:18:18;9.70;;;3.63;;
67997;SDS011;54773;53.388;-1.504;2024-02-23T12:21:04;5.82;;;2.63;;
67997;SDS011;54773;53.388;-1.504;2024-02-23T12:23:50;6.70;;;1.70;;
67997;SDS011;54773;53.388;-1.504;2024-02-23T12:26:34;7.65;;;1.60;;
67997;SDS011;54773;53.388;-1.504;2024-02-23T12:29:18;3.55;;;1.08;;
67997;SDS011;54773;53.388;-1.504;2024-02-23T12:32:03;2.83;;;0.82;;
67997;SDS011;54773;53.388;-1.504;2024-02-23T12:34:48;4.47;;;1.05;;
67997;SDS011;54773;53.388;-1.504;2024-02-23T12:37:35;3.50;;;1.10;;
67997;SDS011;54773;53.388;-1.504;2024-02-23T12:40:19;3.42;;;0.70;;
67997;SDS011;54773;53.388;-1.504;2024-02-23T12:43:03;5.38;;;1.10;;
67997;SDS011;54773;53.388;-1.504;2024-02-23T12:45:48;6.18;;;1.15;;
67997;SDS011;54773;53.388;-1.504;2024-02-23T12:48:35;3.80;;;0.82;;
67997;SDS011;54773;53.388;-1.504;2024-02-23T12:51:19;3.38;;;0.90;;
67997;SDS011;54773;53.388;-1.504;2024-02-23T12:54:08;2.22;;;0.70;;
67997;SDS011;54773;53.388;-1.504;2024-02-23T12:56:52;5.00;;;1.08;;
67997;SDS011;54773;53.388;-1.504;2024-02-23T12:59:36;4.63;;;0.90;;
67997;SDS011;54773;53.388;-1.504;2024-02-23T13:02:20;4.32;;;1.00;;
67997;SDS011;54773;53.388;-1.504;2024-02-23T13:05:04;4.13;;;1.08;;
67997;SDS011;54773;53.388;-1.504;2024-02-23T13:07:48;4.37;;;0.90;;
67997;SDS011;54773;53.388;-1.504;2024-02-23T13:10:32;3.08;;;0.82;;
67997;SDS011;54773;53.388;-1.504;2024-02-23T13:13:18;4.32;;;1.00;;
67997;SDS011;54773;53.388;-1.504;2024-02-23T13:16:03;3.67;;;1.20;;
67997;SDS011;54773;53.388;-1.504;2024-02-23T13:18:47;1.27;;;0.65;;
67997;SDS011;54773;53.388;-1.504;2024-02-23T13:21:31;2.20;;;0.80;;
67997;SDS011;54773;53.388;-1.504;2024-02-23T13:24:16;3.92;;;0.90;;
67997;SDS011;54773;53.388;-1.504;2024-02-23T13:27:00;2.75;;;1.20;;
67997;SDS011;54773;53.388;-1.504;2024-02-23T13:29:45;2.95;;;0.90;;
67997;SDS011;54773;53.388;-1.504;2024-02-23T13:32:29;2.33;;;1.00;;
67997;SDS011;54773;53.388;-1.504;2024-02-23T13:35:13;5.07;;;1.20;;
67997;SDS011;54773;53.388;-1.504;2024-02-23T13:37:58;2.47;;;1.10;;
67997;SDS011;54773;53.388;-1.504;2024-02-23T13:40:42;2.47;;;1.10;;
67997;SDS011;54773;53.388;-1.504;2024-02-23T13:43:26;2.92;;;1.00;;
67997;SDS011;54773;53.388;-1.504;2024-02-23T13:46:11;2.00;;;1.00;;
67997;SDS011;54773;53.388;-1.504;2024-02-23T13:49:04;2.60;;;1.00;;
67997;SDS011;54773;53.388;-1.504;2024-02-23T13:54:34;5.47;;;1.40;;
67997;SDS011;54773;53.388;-1.504;2024-02-23T13:57:18;5.88;;;1.73;;
67997;SDS011;54773;53.388;-1.504;2024-02-23T14:00:02;5.20;;;1.63;;
67997;SDS011;54773;53.388;-1.504;2024-02-23T14:02:47;5.93;;;1.60;;
67997;SDS011;54773;53.388;-1.504;2024-02-23T14:05:31;3.53;;;1.67;;
67997;SDS011;54773;53.388;-1.504;2024-02-23T14:08:15;3.67;;;1.63;;
67997;SDS011;54773;53.388;-1.504;2024-02-23T14:11:00;3.88;;;1.88;;
67997;SDS011;54773;53.388;-1.504;2024-02-23T14:13:44;3.63;;;1.60;;
67997;SDS011;54773;53.388;-1.504;2024-02-23T14:16:30;6.35;;;1.63;;
67997;SDS011;54773;53.388;-1.504;2024-02-23T14:19:14;4.97;;;1.70;;
67997;SDS011;54773;53.388;-1.504;2024-02-23T14:21:58;3.90;;;1.30;;
67997;SDS011;54773;53.388;-1.504;2024-02-23T14:24:42;3.22;;;1.10;;
67997;SDS011;54773;53.388;-1.504;2024-02-23T14:27:26;4.13;;;1.20;;
67997;SDS011;54773;53.388;-1.504;2024-02-23T14:30:13;5.63;;;1.15;;
67997;SDS011;54773;53.388;-1.504;2024-02-23T14:32:58;4.95;;;0.93;;
67997;SDS011;54773;53.388;-1.504;2024-02-23T14:38:26;4.50;;;1.00;;
67997;SDS011;54773;53.388;-1.504;2024-02-23T14:41:10;5.07;;;1.10;;
67997;SDS011;54773;53.388;-1.504;2024-02-23T14:43:54;4.07;;;1.40;;
67997;SDS011;54773;53.388;-1.504;2024-02-23T14:46:38;4.30;;;1.30;;
67997;SDS011;54773;53.388;-1.504;2024-02-23T14:49:22;6.13;;;1.10;;
67997;SDS011;54773;53.388;-1.504;2024-02-23T14:52:06;5.65;;;1.52;;
67997;SDS011;54773;53.388;-1.504;2024-02-23T14:54:50;4.50;;;1.10;;
67997;SDS011;54773;53.388;-1.504;2024-02-23T14:57:34;4.53;;;1.00;;
67997;SDS011;54773;53.388;-1.504;2024-02-23T15:00:18;3.58;;;1.20;;
67997;SDS011;54773;53.388;-1.504;2024-02-23T15:03:02;6.78;;;1.52;;
67997;SDS011;54773;53.388;-1.504;2024-02-23T15:05:47;4.75;;;2.17;;
67997;SDS011;54773;53.388;-1.504;2024-02-23T15:08:31;3.92;;;1.10;;
67997;SDS011;54773;53.388;-1.504;2024-02-23T15:11:15;6.47;;;1.27;;
67997;SDS011;54773;53.388;-1.504;2024-02-23T15:13:59;4.25;;;1.35;;
67997;SDS011;54773;53.388;-1.504;2024-02-23T15:16:44;5.32;;;1.27;;
67997;SDS011;54773;53.388;-1.504;2024-02-23T15:19:29;3.17;;;1.10;;
67997;SDS011;54773;53.388;-1.504;2024-02-23T15:22:12;4.67;;;1.77;;
67997;SDS011;54773;53.388;-1.504;2024-02-23T15:24:58;4.55;;;1.27;;
67997;SDS011;54773;53.388;-1.504;2024-02-23T15:27:43;5.10;;;1.20;;
67997;SDS011;54773;53.388;-1.504;2024-02-23T15:30:27;4.10;;;1.00;;
67997;SDS011;54773;53.388;-1.504;2024-02-23T15:33:11;3.75;;;1.15;;
67997;SDS011;54773;53.388;-1.504;2024-02-23T15:35:55;2.92;;;1.00;;
67997;SDS011;54773;53.388;-1.504;2024-02-23T15:38:39;5.47;;;1.00;;
67997;SDS011;54773;53.388;-1.504;2024-02-23T15:41:24;4.30;;;1.23;;
67997;SDS011;54773;53.388;-1.504;2024-02-23T15:44:09;4.88;;;0.90;;
67997;SDS011;54773;53.388;-1.504;2024-02-23T15:46:53;4.20;;;0.93;;
67997;SDS011;54773;53.388;-1.504;2024-02-23T15:49:37;5.18;;;1.30;;
67997;SDS011;54773;53.388;-1.504;2024-02-23T15:52:21;3.22;;;1.05;;
67997;SDS011;54773;53.388;-1.504;2024-02-23T15:55:05;5.00;;;1.80;;
67997;SDS011;54773;53.388;-1.504;2024-02-23T15:57:49;4.05;;;1.08;;
67997;SDS011;54773;53.388;-1.504;2024-02-23T16:00:33;3.03;;;0.83;;
67997;SDS011;54773;53.388;-1.504;2024-02-23T16:03:17;5.25;;;1.17;;
67997;SDS011;54773;53.388;-1.504;2024-02-23T16:06:03;4.45;;;1.13;;
67997;SDS011;54773;53.388;-1.504;2024-02-23T16:08:47;5.25;;;1.77;;
67997;SDS011;54773;53.388;-1.504;2024-02-23T16:11:32;3.78;;;1.25;;
67997;SDS011;54773;53.388;-1.504;2024-02-23T16:14:15;4.10;;;0.80;;
67997;SDS011;54773;53.388;-1.504;2024-02-23T16:17:00;3.00;;;1.02;;
67997;SDS011;54773;53.388;-1.504;2024-02-23T16:19:46;3.53;;;0.95;;
67997;SDS011;54773;53.388;-1.504;2024-02-23T16:22:30;3.80;;;1.10;;
67997;SDS011;54773;53.388;-1.504;2024-02-23T16:25:14;3.43;;;0.93;;
67997;SDS011;54773;53.388;-1.504;2024-02-23T16:27:58;3.47;;;0.97;;